createdAt,value
2018-03-15T00:00:13.830Z,6.13
2018-03-15T00:01:13.846Z,6.10
2018-03-15T00:02:13.866Z,6.05
2018-03-15T00:03:13.880Z,6.14
2018-03-15T00:04:13.900Z,6.10
2018-03-15T00:05:13.919Z,6.05
2018-03-15T00:06:13.936Z,6.16
2018-03-15T00:07:13.953Z,6.19
2018-03-15T00:08:13.974Z,6.21
2018-03-15T00:09:13.990Z,6.11
2018-03-15T00:10:14.004Z,6.06
2018-03-15T00:11:14.032Z,6.17
2018-03-15T00:12:14.047Z,6.08
2018-03-15T00:13:14.067Z,6.08
2018-03-15T00:14:14.085Z,6.01
2018-03-15T00:15:14.099Z,5.96
2018-03-15T00:16:14.119Z,6.08
2018-03-15T00:17:14.133Z,6.01
2018-03-15T00:18:14.153Z,5.92
2018-03-15T00:19:14.174Z,5.90
2018-03-15T00:20:14.187Z,5.99
2018-03-15T00:21:14.209Z,5.98
2018-03-15T00:22:14.232Z,5.92
2018-03-15T00:23:14.247Z,5.87
2018-03-15T00:24:14.262Z,5.83
2018-03-15T00:25:14.286Z,5.83
2018-03-15T00:26:14.312Z,5.83
2018-03-15T00:27:14.317Z,5.81
2018-03-15T00:28:14.337Z,5.85
2018-03-15T00:29:14.357Z,5.88
2018-03-15T00:30:14.377Z,5.88
2018-03-15T00:31:14.392Z,5.99
2018-03-15T00:32:14.411Z,6.02
2018-03-15T00:33:14.437Z,5.90
2018-03-15T00:34:14.446Z,5.95
2018-03-15T00:35:14.468Z,5.83
2018-03-15T00:36:14.486Z,5.92
2018-03-15T00:37:14.506Z,5.90
2018-03-15T00:38:14.525Z,5.87
2018-03-15T00:39:14.535Z,5.98
2018-03-15T00:40:14.560Z,5.96
2018-03-15T00:41:14.580Z,6.06
2018-03-15T00:42:14.591Z,5.96
2018-03-15T00:43:14.613Z,5.87
2018-03-15T00:44:14.631Z,5.84
2018-03-15T00:45:14.655Z,5.73
2018-03-15T00:46:14.670Z,5.78
2018-03-15T00:47:14.683Z,5.88
2018-03-15T00:48:14.710Z,5.77
2018-03-15T00:49:14.721Z,5.81
2018-03-15T00:50:14.741Z,5.84
2018-03-15T00:51:14.759Z,5.74
2018-03-15T00:52:14.775Z,5.83
2018-03-15T00:53:14.805Z,5.73
2018-03-15T00:54:14.811Z,5.70
2018-03-15T00:55:14.840Z,5.67
2018-03-15T00:56:14.851Z,5.74
2018-03-15T00:57:14.870Z,5.83
2018-03-15T00:58:14.889Z,5.80
2018-03-15T00:59:14.910Z,5.73
2018-03-15T01:00:14.929Z,5.66
2018-03-15T01:01:14.944Z,5.77
2018-03-15T01:02:14.960Z,5.74
2018-03-15T01:03:14.984Z,5.63
2018-03-15T01:04:14.995Z,5.65
2018-03-15T01:05:15.019Z,5.66
2018-03-15T01:06:15.035Z,5.74
2018-03-15T01:07:15.055Z,5.74
2018-03-15T01:08:15.070Z,5.69
2018-03-15T01:09:15.090Z,5.63
2018-03-15T01:10:15.116Z,5.59
2018-03-15T01:11:15.128Z,5.69
2018-03-15T01:12:15.146Z,5.67
2018-03-15T01:13:15.159Z,5.59
2018-03-15T01:14:15.179Z,5.67
2018-03-15T01:15:15.207Z,5.65
2018-03-15T01:16:15.220Z,5.81
2018-03-15T01:17:15.238Z,5.74
2018-03-15T01:18:15.252Z,5.56
2018-03-15T01:19:15.272Z,5.52
2018-03-15T01:20:15.289Z,5.51
2018-03-15T01:21:15.314Z,5.56
2018-03-15T01:22:15.330Z,5.48
2018-03-15T01:23:15.357Z,5.41
2018-03-15T01:24:15.359Z,5.56
2018-03-15T01:25:15.379Z,5.52
2018-03-15T01:26:15.401Z,5.56
2018-03-15T01:27:15.418Z,5.58
2018-03-15T01:28:15.438Z,5.44
2018-03-15T01:29:15.453Z,5.40
2018-03-15T01:30:15.473Z,5.37
2018-03-15T01:31:15.488Z,5.41
2018-03-15T01:32:15.513Z,5.42
2018-03-15T01:33:15.528Z,5.45
2018-03-15T01:34:15.547Z,5.42
2018-03-15T01:35:15.561Z,5.45
2018-03-15T01:36:15.582Z,5.42
2018-03-15T01:37:15.602Z,5.38
2018-03-15T01:38:15.622Z,5.33
2018-03-15T01:39:15.631Z,5.30
2018-03-15T01:40:15.652Z,5.23
2018-03-15T01:41:15.667Z,5.27
2018-03-15T01:42:15.688Z,5.27
2018-03-15T01:43:15.704Z,5.29
2018-03-15T01:44:15.723Z,5.26
2018-03-15T01:45:15.742Z,5.29
2018-03-15T01:46:15.758Z,5.40
2018-03-15T01:47:15.777Z,5.32
2018-03-15T01:48:15.794Z,5.38
2018-03-15T01:49:15.822Z,5.32
2018-03-15T01:50:15.827Z,5.33
2018-03-15T01:51:15.852Z,5.30
2018-03-15T01:52:15.867Z,5.29
2018-03-15T01:53:15.882Z,5.30
2018-03-15T01:54:15.908Z,5.35
2018-03-15T01:55:15.922Z,5.32
2018-03-15T01:56:15.944Z,5.27
2018-03-15T01:57:15.962Z,5.24
2018-03-15T01:58:15.976Z,5.17
2018-03-15T01:59:15.988Z,5.19
2018-03-15T02:00:16.007Z,5.26
2018-03-15T02:01:16.031Z,5.37
2018-03-15T02:02:16.047Z,5.26
2018-03-15T02:03:16.063Z,5.33
2018-03-15T02:04:16.083Z,5.19
2018-03-15T02:05:16.108Z,5.23
2018-03-15T02:06:16.117Z,5.24
2018-03-15T02:07:16.135Z,5.15
2018-03-15T02:08:16.152Z,5.23
2018-03-15T02:09:16.171Z,5.22
2018-03-15T02:10:16.189Z,5.14
2018-03-15T02:11:16.207Z,5.17
2018-03-15T02:12:16.224Z,5.20
2018-03-15T02:13:16.242Z,5.14
2018-03-15T02:14:16.266Z,5.08
2018-03-15T02:15:16.283Z,5.02
2018-03-15T02:16:16.296Z,4.87
2018-03-15T02:17:16.314Z,5.01
2018-03-15T02:18:16.331Z,4.97
2018-03-15T02:19:16.347Z,4.83
2018-03-15T02:20:16.369Z,4.87
2018-03-15T02:21:16.389Z,4.86
2018-03-15T02:22:16.401Z,4.88
2018-03-15T02:23:16.421Z,4.97
2018-03-15T02:24:16.437Z,4.83
2018-03-15T02:25:16.457Z,4.80
2018-03-15T02:26:16.476Z,4.84
2018-03-15T02:27:16.496Z,4.87
2018-03-15T02:28:16.505Z,4.84
2018-03-15T02:29:16.529Z,4.90
2018-03-15T02:30:16.550Z,4.90
2018-03-15T02:31:16.564Z,4.93
2018-03-15T02:32:16.582Z,4.91
2018-03-15T02:33:16.595Z,4.97
2018-03-15T02:34:16.620Z,4.79
2018-03-15T02:35:16.635Z,4.79
2018-03-15T02:36:16.651Z,4.72
2018-03-15T02:37:16.667Z,4.77
2018-03-15T02:38:16.685Z,4.71
2018-03-15T02:39:16.700Z,4.77
2018-03-15T02:40:16.722Z,4.84
2018-03-15T02:41:16.736Z,4.79
2018-03-15T02:42:16.755Z,4.88
2018-03-15T02:43:16.770Z,4.83
2018-03-15T02:44:16.789Z,4.77
2018-03-15T02:45:16.810Z,4.84
2018-03-15T02:46:16.821Z,4.99
2018-03-15T02:47:16.839Z,4.91
2018-03-15T02:48:16.859Z,4.97
2018-03-15T02:49:16.880Z,4.79
2018-03-15T02:50:16.897Z,4.74
2018-03-15T02:51:16.910Z,4.74
2018-03-15T02:52:16.932Z,4.74
2018-03-15T02:53:16.950Z,4.75
2018-03-15T02:54:16.964Z,4.87
2018-03-15T02:55:16.984Z,4.88
2018-03-15T02:56:16.994Z,4.77
2018-03-15T02:57:17.026Z,4.79
2018-03-15T02:58:17.035Z,4.74
2018-03-15T02:59:17.054Z,4.74
2018-03-15T03:00:17.070Z,4.74
2018-03-15T03:01:17.091Z,4.75
2018-03-15T03:02:17.105Z,4.69
2018-03-15T03:03:17.119Z,4.59
2018-03-15T03:04:17.136Z,4.49
2018-03-15T03:05:17.159Z,4.51
2018-03-15T03:06:17.175Z,4.64
2018-03-15T03:07:17.193Z,4.49
2018-03-15T03:08:17.203Z,4.54
2018-03-15T03:09:17.289Z,4.69
2018-03-15T03:10:17.240Z,4.54
2018-03-15T03:11:17.256Z,4.56
2018-03-15T03:12:17.286Z,4.47
2018-03-15T03:13:17.291Z,4.39
2018-03-15T03:14:17.312Z,4.38
2018-03-15T03:15:17.332Z,4.28
2018-03-15T03:16:17.343Z,4.24
2018-03-15T03:17:17.366Z,4.36
2018-03-15T03:18:17.382Z,4.17
2018-03-15T03:19:17.394Z,4.25
2018-03-15T03:20:17.414Z,4.35
2018-03-15T03:21:17.429Z,4.20
2018-03-15T03:22:17.448Z,4.21
2018-03-15T03:23:17.466Z,4.18
2018-03-15T03:24:17.483Z,4.04
2018-03-15T03:25:17.505Z,4.07
2018-03-15T03:26:17.518Z,4.02
2018-03-15T03:27:17.533Z,4.04
2018-03-15T03:28:17.551Z,4.11
2018-03-15T03:29:17.568Z,4.20
2018-03-15T03:30:17.584Z,4.20
2018-03-15T03:31:17.604Z,4.26
2018-03-15T03:32:17.627Z,4.20
2018-03-15T03:33:17.634Z,4.14
2018-03-15T03:34:17.656Z,4.07
2018-03-15T03:35:17.673Z,4.08
2018-03-15T03:36:17.688Z,4.13
2018-03-15T03:37:17.711Z,4.14
2018-03-15T03:38:17.722Z,4.20
2018-03-15T03:39:17.737Z,4.18
2018-03-15T03:40:17.752Z,4.14
2018-03-15T03:41:17.774Z,4.24
2018-03-15T03:42:17.788Z,4.25
2018-03-15T03:43:17.810Z,4.16
2018-03-15T03:44:17.826Z,4.10
2018-03-15T03:45:17.842Z,4.13
2018-03-15T03:46:17.856Z,4.02
2018-03-15T03:47:17.872Z,4.02
2018-03-15T03:48:17.895Z,4.06
2018-03-15T03:49:17.907Z,4.02
2018-03-15T03:50:17.921Z,4.00
2018-03-15T03:51:17.946Z,4.08
2018-03-15T03:52:17.960Z,4.07
2018-03-15T03:53:17.976Z,4.17
2018-03-15T03:54:17.995Z,4.21
2018-03-15T03:55:18.006Z,4.07
2018-03-15T03:56:18.022Z,4.02
2018-03-15T03:57:18.049Z,4.10
2018-03-15T03:58:18.063Z,3.93
2018-03-15T03:59:18.076Z,3.88
2018-03-15T04:00:18.092Z,3.95
2018-03-15T04:01:18.112Z,3.96
2018-03-15T04:02:18.126Z,3.98
2018-03-15T04:03:18.149Z,3.99
2018-03-15T04:04:18.166Z,3.98
2018-03-15T04:05:18.175Z,3.93
2018-03-15T04:06:18.190Z,4.04
2018-03-15T04:07:18.210Z,3.93
2018-03-15T04:08:18.229Z,3.98
2018-03-15T04:09:18.246Z,3.92
2018-03-15T04:10:18.262Z,4.02
2018-03-15T04:11:18.285Z,4.00
2018-03-15T04:12:18.298Z,4.16
2018-03-15T04:13:18.321Z,4.17
2018-03-15T04:14:18.330Z,4.14
2018-03-15T04:15:18.345Z,4.07
2018-03-15T04:16:18.364Z,4.07
2018-03-15T04:17:18.380Z,4.07
2018-03-15T04:18:18.405Z,4.16
2018-03-15T04:19:18.419Z,4.24
2018-03-15T04:20:18.434Z,4.10
2018-03-15T04:21:18.450Z,4.10
2018-03-15T04:22:18.476Z,4.08
2018-03-15T04:23:18.482Z,4.08
2018-03-15T04:24:18.499Z,4.17
2018-03-15T04:25:18.518Z,4.14
2018-03-15T04:26:18.536Z,4.13
2018-03-15T04:27:18.550Z,4.28
2018-03-15T04:28:18.575Z,4.34
2018-03-15T04:29:18.588Z,4.34
2018-03-15T04:30:18.607Z,4.17
2018-03-15T04:31:18.620Z,4.28
2018-03-15T04:32:18.642Z,4.24
2018-03-15T04:33:18.654Z,4.29
2018-03-15T04:34:18.669Z,4.21
2018-03-15T04:35:18.690Z,4.31
2018-03-15T04:36:18.712Z,4.26
2018-03-15T04:37:18.723Z,4.25
2018-03-15T04:38:18.744Z,4.28
2018-03-15T04:39:18.760Z,4.32
2018-03-15T04:40:18.775Z,4.25
2018-03-15T04:41:18.804Z,4.36
2018-03-15T04:42:18.809Z,4.25
2018-03-15T04:43:18.832Z,4.34
2018-03-15T04:44:18.848Z,4.49
2018-03-15T04:45:18.864Z,4.51
2018-03-15T04:46:18.882Z,4.57
2018-03-15T04:47:18.898Z,4.57
2018-03-15T04:48:18.918Z,4.47
2018-03-15T04:49:18.929Z,4.54
2018-03-15T04:50:18.948Z,4.57
2018-03-15T04:51:18.963Z,4.53
2018-03-15T04:52:18.985Z,4.51
2018-03-15T04:53:19.002Z,4.53
2018-03-15T04:54:19.016Z,4.42
2018-03-15T04:55:19.036Z,4.49
2018-03-15T04:56:19.047Z,4.39
2018-03-15T04:57:19.068Z,4.43
2018-03-15T04:58:19.088Z,4.50
2018-03-15T04:59:19.108Z,4.38
2018-03-15T05:00:19.120Z,4.31
2018-03-15T05:01:19.138Z,4.42
2018-03-15T05:02:19.157Z,4.51
2018-03-15T05:03:19.168Z,4.46
2018-03-15T05:04:19.188Z,4.59
2018-03-15T05:05:19.211Z,4.51
2018-03-15T05:06:19.223Z,4.42
2018-03-15T05:07:19.243Z,4.50
2018-03-15T05:08:19.258Z,4.53
2018-03-15T05:09:19.277Z,4.65
2018-03-15T05:10:19.304Z,4.59
2018-03-15T05:11:19.306Z,4.54
2018-03-15T05:12:19.334Z,4.47
2018-03-15T05:13:19.346Z,4.49
2018-03-15T05:14:19.361Z,4.43
2018-03-15T05:15:19.385Z,4.29
2018-03-15T05:16:19.399Z,4.35
2018-03-15T05:17:19.420Z,4.38
2018-03-15T05:18:19.440Z,4.44
2018-03-15T05:19:19.452Z,4.47
2018-03-15T05:20:19.467Z,4.50
2018-03-15T05:21:19.491Z,4.62
2018-03-15T05:22:19.502Z,4.53
2018-03-15T05:23:19.521Z,4.50
2018-03-15T05:24:19.536Z,4.51
2018-03-15T05:25:19.560Z,4.46
2018-03-15T05:26:19.581Z,4.38
2018-03-15T05:27:19.591Z,4.31
2018-03-15T05:28:19.617Z,4.34
2018-03-15T05:29:19.626Z,4.44
2018-03-15T05:30:19.645Z,4.47
2018-03-15T05:31:19.657Z,4.43
2018-03-15T05:32:19.676Z,4.57
2018-03-15T05:33:19.694Z,4.51
2018-03-15T05:34:19.712Z,4.51
2018-03-15T05:35:19.733Z,4.61
2018-03-15T05:36:19.751Z,4.61
2018-03-15T05:37:19.766Z,4.69
2018-03-15T05:38:19.784Z,4.71
2018-03-15T05:39:19.796Z,4.72
2018-03-15T05:40:19.815Z,4.71
2018-03-15T05:41:19.835Z,4.75
2018-03-15T05:42:19.850Z,4.74
2018-03-15T05:43:19.868Z,4.86
2018-03-15T05:44:19.885Z,4.71
2018-03-15T05:45:19.908Z,4.84
2018-03-15T05:46:19.919Z,4.83
2018-03-15T05:47:19.941Z,4.87
2018-03-15T05:48:19.954Z,4.84
2018-03-15T05:49:19.975Z,4.83
2018-03-15T05:50:19.994Z,4.74
2018-03-15T05:51:20.008Z,4.75
2018-03-15T05:52:20.025Z,4.67
2018-03-15T05:53:20.049Z,4.71
2018-03-15T05:54:20.060Z,4.75
2018-03-15T05:55:20.075Z,4.74
2018-03-15T05:56:20.094Z,4.79
2018-03-15T05:57:20.120Z,4.69
2018-03-15T05:58:20.130Z,4.68
2018-03-15T05:59:20.147Z,4.68
2018-03-15T06:00:20.164Z,4.79
2018-03-15T06:01:20.184Z,4.74
2018-03-15T06:02:20.200Z,4.74
2018-03-15T06:03:20.216Z,4.88
2018-03-15T06:04:20.236Z,4.84
2018-03-15T06:05:20.254Z,4.75
2018-03-15T06:06:20.274Z,4.93
2018-03-15T06:07:20.293Z,4.96
2018-03-15T06:08:20.307Z,4.77
2018-03-15T06:09:20.324Z,4.83
2018-03-15T06:10:20.341Z,4.75
2018-03-15T06:11:20.362Z,4.74
2018-03-15T06:12:20.383Z,4.79
2018-03-15T06:13:20.396Z,4.77
2018-03-15T06:14:20.438Z,4.88
2018-03-15T06:15:20.427Z,4.97
2018-03-15T06:16:20.451Z,4.93
2018-03-15T06:17:20.462Z,4.88
2018-03-15T06:18:20.483Z,4.80
2018-03-15T06:19:20.505Z,4.80
2018-03-15T06:20:20.526Z,4.80
2018-03-15T06:21:20.540Z,4.91
2018-03-15T06:22:20.558Z,4.96
2018-03-15T06:23:20.606Z,5.06
2018-03-15T06:24:20.592Z,5.04
2018-03-15T06:25:20.608Z,5.12
2018-03-15T06:26:20.623Z,5.06
2018-03-15T06:27:20.643Z,5.01
2018-03-15T06:28:20.658Z,5.04
2018-03-15T06:29:20.672Z,5.06
2018-03-15T06:30:20.696Z,5.05
2018-03-15T06:31:20.716Z,4.94
2018-03-15T06:32:20.727Z,4.97
2018-03-15T06:33:20.746Z,5.02
2018-03-15T06:34:20.769Z,5.02
2018-03-15T06:35:20.786Z,5.08
2018-03-15T06:36:20.805Z,5.09
2018-03-15T06:37:20.822Z,4.88
2018-03-15T06:38:20.836Z,4.94
2018-03-15T06:39:20.855Z,4.90
2018-03-15T06:40:20.877Z,4.87
2018-03-15T06:41:20.887Z,4.88
2018-03-15T06:42:20.909Z,4.79
2018-03-15T06:43:20.927Z,4.83
2018-03-15T06:44:20.945Z,4.97
2018-03-15T06:45:20.970Z,5.01
2018-03-15T06:46:20.977Z,4.96
2018-03-15T06:47:20.993Z,4.93
2018-03-15T06:48:21.019Z,4.97
2018-03-15T06:49:21.032Z,5.12
2018-03-15T06:50:21.047Z,5.09
2018-03-15T06:51:21.108Z,5.19
2018-03-15T06:52:21.089Z,5.19
2018-03-15T06:53:21.102Z,5.11
2018-03-15T06:54:21.120Z,5.11
2018-03-15T06:55:21.137Z,5.04
2018-03-15T06:56:21.153Z,5.11
2018-03-15T06:57:21.173Z,5.17
2018-03-15T06:58:21.191Z,5.15
2018-03-15T06:59:21.212Z,5.19
2018-03-15T07:00:21.226Z,5.24
2018-03-15T07:01:21.250Z,5.26
2018-03-15T07:02:21.258Z,5.30
2018-03-15T07:03:21.272Z,5.33
2018-03-15T07:04:21.293Z,5.32
2018-03-15T07:05:21.561Z,5.33
2018-03-15T07:06:21.366Z,5.35
2018-03-15T07:07:21.351Z,5.35
2018-03-15T07:08:21.360Z,5.40
2018-03-15T07:09:21.382Z,5.38
2018-03-15T07:10:21.404Z,5.30
2018-03-15T07:11:21.414Z,5.30
2018-03-15T07:12:21.432Z,5.38
2018-03-15T07:13:21.450Z,5.33
2018-03-15T07:14:21.480Z,5.41
2018-03-15T07:15:21.489Z,5.42
2018-03-15T07:16:21.506Z,5.40
2018-03-15T07:17:21.521Z,5.47
2018-03-15T07:18:21.543Z,5.47
2018-03-15T07:19:21.560Z,5.44
2018-03-15T07:20:21.578Z,5.56
2018-03-15T07:21:21.845Z,5.49
2018-03-15T07:22:21.609Z,5.44
2018-03-15T07:23:21.627Z,5.40
2018-03-15T07:24:21.649Z,5.37
2018-03-15T07:25:21.666Z,5.33
2018-03-15T07:26:21.683Z,5.45
2018-03-15T07:27:21.703Z,5.52
2018-03-15T07:28:21.723Z,5.52
2018-03-15T07:29:21.736Z,5.51
2018-03-15T07:30:21.756Z,5.52
2018-03-15T07:31:21.775Z,5.52
2018-03-15T07:32:21.788Z,5.51
2018-03-15T07:33:21.808Z,5.49
2018-03-15T07:34:21.827Z,5.56
2018-03-15T07:35:21.851Z,5.56
2018-03-15T07:36:21.863Z,5.63
2018-03-15T07:37:21.879Z,5.69
2018-03-15T07:38:21.899Z,5.63
2018-03-15T07:39:21.943Z,5.51
2018-03-15T07:40:21.938Z,5.55
2018-03-15T07:41:21.954Z,5.52
2018-03-15T07:42:21.974Z,5.55
2018-03-15T07:43:21.993Z,5.51
2018-03-15T07:44:22.015Z,5.47
2018-03-15T07:45:22.023Z,5.47
2018-03-15T07:46:22.054Z,5.56
2018-03-15T07:47:22.065Z,5.55
2018-03-15T07:48:22.080Z,5.56
2018-03-15T07:49:22.099Z,5.65
2018-03-15T07:50:22.113Z,5.75
2018-03-15T07:51:22.134Z,5.73
2018-03-15T07:52:22.153Z,5.74
2018-03-15T07:53:22.168Z,5.65
2018-03-15T07:54:22.193Z,5.55
2018-03-15T07:55:22.206Z,5.67
2018-03-15T07:56:22.219Z,5.63
2018-03-15T07:57:22.240Z,5.59
2018-03-15T07:58:22.267Z,5.63
2018-03-15T07:59:22.281Z,5.83
2018-03-15T08:00:22.298Z,5.93
2018-03-15T08:01:22.311Z,6.08
2018-03-15T08:02:22.333Z,6.06
2018-03-15T08:03:22.349Z,6.10
2018-03-15T08:04:22.368Z,6.13
2018-03-15T08:05:22.392Z,6.17
2018-03-15T08:06:22.408Z,6.20
2018-03-15T08:07:22.422Z,6.38
2018-03-15T08:08:22.443Z,6.36
2018-03-15T08:09:22.461Z,6.48
2018-03-15T08:10:22.477Z,6.61
2018-03-15T08:11:22.498Z,6.54
2018-03-15T08:12:22.512Z,6.57
2018-03-15T08:13:22.539Z,6.65
2018-03-15T08:14:22.554Z,6.68
2018-03-15T08:15:22.571Z,6.69
2018-03-15T08:16:22.593Z,6.82
2018-03-15T08:17:22.611Z,6.82
2018-03-15T08:18:22.630Z,6.91
2018-03-15T08:19:22.647Z,6.94
2018-03-15T08:20:22.665Z,6.90
2018-03-15T08:21:22.686Z,6.96
2018-03-15T08:22:22.706Z,7.12
2018-03-15T08:23:22.726Z,7.01
2018-03-15T08:24:22.744Z,7.11
2018-03-15T08:25:22.762Z,7.19
2018-03-15T08:26:22.781Z,7.29
2018-03-15T08:27:22.795Z,7.37
2018-03-15T08:28:22.825Z,7.44
2018-03-15T08:29:22.837Z,7.37
2018-03-15T08:30:22.860Z,7.23
2018-03-15T08:31:22.876Z,7.30
2018-03-15T08:32:22.895Z,7.27
2018-03-15T08:33:22.964Z,7.14
2018-03-15T08:34:22.936Z,7.24
2018-03-15T08:35:22.956Z,7.26
2018-03-15T08:36:22.971Z,7.24
2018-03-15T08:37:22.994Z,7.27
2018-03-15T08:38:23.016Z,7.18
2018-03-15T08:39:23.051Z,7.21
2018-03-15T08:40:23.051Z,7.24
2018-03-15T08:41:23.069Z,7.18
2018-03-15T08:42:23.091Z,7.26
2018-03-15T08:43:23.111Z,7.27
2018-03-15T08:44:23.134Z,7.29
2018-03-15T08:45:23.154Z,7.42
2018-03-15T08:46:23.170Z,7.45
2018-03-15T08:47:23.188Z,7.50
2018-03-15T08:48:23.208Z,7.55
2018-03-15T08:49:23.239Z,7.45
2018-03-15T08:50:23.247Z,7.51
2018-03-15T08:51:23.268Z,7.48
2018-03-15T08:52:23.355Z,7.44
2018-03-15T08:53:23.306Z,7.47
2018-03-15T08:54:23.325Z,7.60
2018-03-15T08:55:23.403Z,7.55
2018-03-15T08:56:23.369Z,7.58
2018-03-15T08:57:23.442Z,7.47
2018-03-15T08:58:23.437Z,7.37
2018-03-15T08:59:23.428Z,7.51
2018-03-15T09:00:23.447Z,7.48
2018-03-15T09:01:23.460Z,7.44
2018-03-15T09:02:23.485Z,7.24
2018-03-15T09:03:23.515Z,7.19
2018-03-15T09:04:23.525Z,7.32
2018-03-15T09:05:23.668Z,7.12
2018-03-15T09:06:23.565Z,7.14
2018-03-15T09:07:23.585Z,7.33
2018-03-15T09:08:23.601Z,7.24
2018-03-15T09:09:23.657Z,7.30
2018-03-15T09:10:23.643Z,7.29
2018-03-15T09:11:23.662Z,7.41
2018-03-15T09:12:23.680Z,7.54
2018-03-15T09:13:23.702Z,7.44
2018-03-15T09:14:23.719Z,7.50
2018-03-15T09:15:23.736Z,7.41
2018-03-15T09:16:23.757Z,7.45
2018-03-15T09:17:23.778Z,7.52
2018-03-15T09:18:23.837Z,7.45
2018-03-15T09:19:23.816Z,7.48
2018-03-15T09:20:23.837Z,7.58
2018-03-15T09:21:23.859Z,7.52
2018-03-15T09:22:23.874Z,7.52
2018-03-15T09:23:23.898Z,7.44
2018-03-15T09:24:23.913Z,7.32
2018-03-15T09:25:23.933Z,7.34
2018-03-15T09:26:23.956Z,7.32
2018-03-15T09:27:23.974Z,7.27
2018-03-15T09:28:23.996Z,7.23
2018-03-15T09:29:24.013Z,7.27
2018-03-15T09:30:24.032Z,7.33
2018-03-15T09:31:24.055Z,7.32
2018-03-15T09:32:24.075Z,7.32
2018-03-15T09:33:24.098Z,7.23
2018-03-15T09:34:24.170Z,7.27
2018-03-15T09:35:24.134Z,7.26
2018-03-15T09:36:24.156Z,7.45
2018-03-15T09:37:24.176Z,7.45
2018-03-15T09:38:24.197Z,7.60
2018-03-15T09:39:24.209Z,7.66
2018-03-15T09:40:24.232Z,7.71
2018-03-15T09:41:24.257Z,7.77
2018-03-15T09:42:24.270Z,7.86
2018-03-15T09:43:24.296Z,7.94
2018-03-15T09:44:24.316Z,7.99
2018-03-15T09:45:24.331Z,8.12
2018-03-15T09:46:24.349Z,8.13
2018-03-15T09:47:24.373Z,8.13
2018-03-15T09:48:24.403Z,8.09
2018-03-15T09:49:24.414Z,8.21
2018-03-15T09:50:24.429Z,8.31
2018-03-15T09:51:24.452Z,8.28
2018-03-15T09:52:24.474Z,8.47
2018-03-15T09:53:24.490Z,8.58
2018-03-15T09:54:24.515Z,8.40
2018-03-15T09:55:24.532Z,8.32
2018-03-15T09:56:24.552Z,8.09
2018-03-15T09:57:24.577Z,7.86
2018-03-15T09:58:24.596Z,7.73
2018-03-15T09:59:24.612Z,7.85
2018-03-15T10:00:24.641Z,7.73
2018-03-15T10:01:24.671Z,7.70
2018-03-15T10:02:24.676Z,7.69
2018-03-15T10:03:24.697Z,7.63
2018-03-15T10:04:24.717Z,7.69
2018-03-15T10:05:24.737Z,7.77
2018-03-15T10:06:24.772Z,7.67
2018-03-15T10:07:24.775Z,7.82
2018-03-15T10:08:24.796Z,7.70
2018-03-15T10:09:24.824Z,7.96
2018-03-15T10:10:24.846Z,7.84
2018-03-15T10:11:24.862Z,7.74
2018-03-15T10:12:24.886Z,7.79
2018-03-15T10:13:24.900Z,8.04
2018-03-15T10:14:24.928Z,8.13
2018-03-15T10:15:24.944Z,8.03
2018-03-15T10:16:24.985Z,8.09
2018-03-15T10:17:24.988Z,8.06
2018-03-15T10:18:25.003Z,8.13
2018-03-15T10:19:25.021Z,8.00
2018-03-15T10:20:25.046Z,7.79
2018-03-15T10:21:25.065Z,8.14
2018-03-15T10:22:25.084Z,8.13
2018-03-15T10:23:25.104Z,8.22
2018-03-15T10:24:25.126Z,8.27
2018-03-15T10:25:26.396Z,8.21
2018-03-15T10:26:25.424Z,8.22
2018-03-15T10:27:25.189Z,7.96
2018-03-15T10:28:25.205Z,7.86
2018-03-15T10:29:25.229Z,7.82
2018-03-15T10:30:25.252Z,7.70
2018-03-15T10:31:25.269Z,7.66
2018-03-15T10:32:25.290Z,7.55
2018-03-15T10:33:25.315Z,7.54
2018-03-15T10:34:25.336Z,7.55
2018-03-15T10:35:25.359Z,7.60
2018-03-15T10:36:25.370Z,7.60
2018-03-15T10:37:25.389Z,7.69
2018-03-15T10:38:25.410Z,7.58
2018-03-15T10:39:25.431Z,7.58
2018-03-15T10:40:25.462Z,7.57
2018-03-15T10:41:25.487Z,7.52
2018-03-15T10:42:25.498Z,7.58
2018-03-15T10:43:25.516Z,7.52
2018-03-15T10:44:25.529Z,7.60
2018-03-15T10:45:25.553Z,7.48
2018-03-15T10:46:25.577Z,7.44
2018-03-15T10:47:25.593Z,7.48
2018-03-15T10:48:25.611Z,7.48
2018-03-15T10:49:25.668Z,7.37
2018-03-15T10:50:25.659Z,7.41
2018-03-15T10:51:25.674Z,7.39
2018-03-15T10:52:25.692Z,7.32
2018-03-15T10:53:25.722Z,7.32
2018-03-15T10:54:25.737Z,7.21
2018-03-15T10:55:25.754Z,7.39
2018-03-15T10:56:25.788Z,7.50
2018-03-15T10:57:25.793Z,7.41
2018-03-15T10:58:25.815Z,7.39
2018-03-15T10:59:25.830Z,7.54
2018-03-15T11:00:25.858Z,7.51
2018-03-15T11:01:25.873Z,7.42
2018-03-15T11:02:25.889Z,7.44
2018-03-15T11:03:25.912Z,7.51
2018-03-15T11:04:25.935Z,7.54
2018-03-15T11:05:25.957Z,7.52
2018-03-15T11:06:25.980Z,7.62
2018-03-15T11:07:26.012Z,7.54
2018-03-15T11:08:26.026Z,7.57
2018-03-15T11:09:26.036Z,7.60
2018-03-15T11:10:26.063Z,7.52
2018-03-15T11:11:26.075Z,7.44
2018-03-15T11:12:26.090Z,7.52
2018-03-15T11:13:26.107Z,7.30
2018-03-15T11:14:26.128Z,7.32
2018-03-15T11:15:26.151Z,7.30
2018-03-15T11:16:26.172Z,7.36
2018-03-15T11:17:26.190Z,7.32
2018-03-15T11:18:26.211Z,7.41
2018-03-15T11:19:26.227Z,7.42
2018-03-15T11:20:26.247Z,7.47
2018-03-15T11:21:26.268Z,7.50
2018-03-15T11:22:26.291Z,7.55
2018-03-15T11:23:26.312Z,7.51
2018-03-15T11:24:26.333Z,7.62
2018-03-15T11:25:26.347Z,7.55
2018-03-15T11:26:26.377Z,7.67
2018-03-15T11:27:26.637Z,7.63
2018-03-15T11:28:26.426Z,7.69
2018-03-15T11:29:26.427Z,7.63
2018-03-15T11:30:26.451Z,7.74
2018-03-15T11:31:26.463Z,7.73
2018-03-15T11:32:26.490Z,7.66
2018-03-15T11:33:26.511Z,7.58
2018-03-15T11:34:26.532Z,7.63
2018-03-15T11:35:26.546Z,7.58
2018-03-15T11:36:26.563Z,7.57
2018-03-15T11:37:26.609Z,7.62
2018-03-15T11:38:26.601Z,7.55
2018-03-15T11:39:26.630Z,7.69
2018-03-15T11:40:26.646Z,7.85
2018-03-15T11:41:26.664Z,7.88
2018-03-15T11:42:26.698Z,7.73
2018-03-15T11:43:26.700Z,7.74
2018-03-15T11:44:26.771Z,7.84
2018-03-15T11:45:26.750Z,7.70
2018-03-15T11:46:26.766Z,7.62
2018-03-15T11:47:26.794Z,7.60
2018-03-15T11:48:26.801Z,7.63
2018-03-15T11:49:26.826Z,7.51
2018-03-15T11:50:26.852Z,7.51
2018-03-15T11:51:26.865Z,7.45
2018-03-15T11:52:26.889Z,7.44
2018-03-15T11:53:26.906Z,7.39
2018-03-15T11:54:26.929Z,7.30
2018-03-15T11:55:26.945Z,7.19
2018-03-15T11:56:26.966Z,7.14
2018-03-15T11:57:26.990Z,7.19
2018-03-15T11:58:27.009Z,7.19
2018-03-15T11:59:27.024Z,7.14
2018-03-15T12:00:27.045Z,7.15
2018-03-15T12:01:27.059Z,7.27
2018-03-15T12:02:27.082Z,7.45
2018-03-15T12:03:27.100Z,7.37
2018-03-15T12:04:27.125Z,7.41
2018-03-15T12:05:27.144Z,7.41
2018-03-15T12:06:27.165Z,7.30
2018-03-15T12:07:27.180Z,7.47
2018-03-15T12:08:27.205Z,7.52
2018-03-15T12:09:27.218Z,7.48
2018-03-15T12:10:27.240Z,7.26
2018-03-15T12:11:27.259Z,7.12
2018-03-15T12:12:27.284Z,7.24
2018-03-15T12:13:27.295Z,7.15
2018-03-15T12:14:27.318Z,7.30
2018-03-15T12:15:27.339Z,7.37
2018-03-15T12:16:27.360Z,7.24
2018-03-15T12:17:27.378Z,7.18
2018-03-15T12:18:27.399Z,6.99
2018-03-15T12:19:27.414Z,7.11
2018-03-15T12:20:27.428Z,7.04
2018-03-15T12:21:27.453Z,7.01
2018-03-15T12:22:27.473Z,7.09
2018-03-15T12:23:27.493Z,7.08
2018-03-15T12:24:27.509Z,7.16
2018-03-15T12:25:27.529Z,7.11
2018-03-15T12:26:27.554Z,6.93
2018-03-15T12:27:27.573Z,6.96
2018-03-15T12:28:27.589Z,6.99
2018-03-15T12:29:27.614Z,6.97
2018-03-15T12:30:27.648Z,6.86
2018-03-15T12:31:27.645Z,6.82
2018-03-15T12:32:27.668Z,6.71
2018-03-15T12:33:27.689Z,6.64
2018-03-15T12:34:27.704Z,6.60
2018-03-15T12:35:27.728Z,6.50
2018-03-15T12:36:27.744Z,6.61
2018-03-15T12:37:27.774Z,6.55
2018-03-15T12:38:27.784Z,6.64
2018-03-15T12:39:27.803Z,6.69
2018-03-15T12:40:27.823Z,6.54
2018-03-15T12:41:27.847Z,6.73
2018-03-15T12:42:27.872Z,6.64
2018-03-15T12:43:27.877Z,6.73
2018-03-15T12:44:27.905Z,6.81
2018-03-15T12:45:27.926Z,6.87
2018-03-15T12:46:27.943Z,6.71
2018-03-15T12:47:27.954Z,6.68
2018-03-15T12:48:27.973Z,6.69
2018-03-15T12:49:27.997Z,6.75
2018-03-15T12:50:28.061Z,6.72
2018-03-15T12:51:28.035Z,6.71
2018-03-15T12:52:28.056Z,6.64
2018-03-15T12:53:28.082Z,6.63
2018-03-15T12:54:28.088Z,6.53
2018-03-15T12:55:28.107Z,6.53
2018-03-15T12:56:28.129Z,6.55
2018-03-15T12:57:28.184Z,6.55
2018-03-15T12:58:28.418Z,6.68
2018-03-15T12:59:28.190Z,6.75
2018-03-15T13:00:28.242Z,6.63
2018-03-15T13:01:28.222Z,6.60
2018-03-15T13:02:28.248Z,6.57
2018-03-15T13:03:28.264Z,6.64
2018-03-15T13:04:28.286Z,6.71
2018-03-15T13:05:28.306Z,6.73
2018-03-15T13:06:28.321Z,6.69
2018-03-15T13:07:28.339Z,6.79
2018-03-15T13:08:28.357Z,6.75
2018-03-15T13:09:28.377Z,6.64
2018-03-15T13:10:28.399Z,6.55
2018-03-15T13:11:28.417Z,6.51
2018-03-15T13:12:28.434Z,6.57
2018-03-15T13:13:28.453Z,6.55
2018-03-15T13:14:28.477Z,6.53
2018-03-15T13:15:28.490Z,6.54
2018-03-15T13:16:28.512Z,6.58
2018-03-15T13:17:28.528Z,6.61
2018-03-15T13:18:28.545Z,6.68